createdAt,value
2022-10-17T00:01:17.125Z,19.00
2022-10-17T00:03:46.495Z,19.00
2022-10-17T00:06:15.544Z,19.00
2022-10-17T00:08:44.064Z,18.90
2022-10-17T00:11:15.466Z,18.80
2022-10-17T00:13:43.256Z,18.80
2022-10-17T00:16:11.066Z,18.80
2022-10-17T00:18:38.826Z,18.80
2022-10-17T00:21:15.906Z,18.70
2022-10-17T00:23:43.695Z,18.80
2022-10-17T00:26:11.425Z,18.70
2022-10-17T00:28:39.243Z,18.70
2022-10-17T00:31:08.445Z,18.70
2022-10-17T00:33:36.685Z,18.70
2022-10-17T00:36:08.924Z,18.70
2022-10-17T00:38:37.462Z,18.60
2022-10-17T00:41:05.665Z,18.60
2022-10-17T00:43:52.066Z,18.60
2022-10-17T00:46:21.128Z,18.60
2022-10-17T00:48:51.264Z,18.60
2022-10-17T00:51:25.176Z,18.60
2022-10-17T00:53:53.024Z,18.60
2022-10-17T00:56:21.676Z,18.60
2022-10-17T00:58:49.856Z,18.50
2022-10-17T01:01:17.806Z,18.50
2022-10-17T01:03:45.894Z,18.50
2022-10-17T01:06:13.535Z,18.50
2022-10-17T01:08:42.885Z,18.50
2022-10-17T01:11:20.636Z,18.50
2022-10-17T01:13:53.805Z,18.40
2022-10-17T01:16:32.635Z,18.30
2022-10-17T01:21:50.939Z,18.30
2022-10-17T01:24:49.434Z,18.30
2022-10-17T01:27:51.465Z,18.20
2022-10-17T01:30:47.445Z,18.20
2022-10-17T01:33:24.557Z,18.20
2022-10-17T01:36:01.841Z,18.20
2022-10-17T01:38:38.545Z,18.20
2022-10-17T01:41:12.366Z,18.10
2022-10-17T01:43:44.856Z,18.10
2022-10-17T01:46:18.357Z,18.10
2022-10-17T01:48:47.915Z,18.10
2022-10-17T01:51:20.524Z,18.10
2022-10-17T01:53:54.246Z,18.10
2022-10-17T01:56:25.435Z,18.00
2022-10-17T01:58:57.395Z,18.00
2022-10-17T02:01:27.126Z,18.00
2022-10-17T02:03:58.435Z,18.00
2022-10-17T02:06:27.778Z,17.90
2022-10-17T02:08:56.874Z,17.90
2022-10-17T02:11:26.447Z,17.90
2022-10-17T02:14:14.205Z,17.90
2022-10-17T02:16:50.605Z,17.90
2022-10-17T02:19:38.865Z,17.90
2022-10-17T02:22:18.038Z,17.90
2022-10-17T02:24:52.817Z,17.80
2022-10-17T02:27:33.098Z,17.80
2022-10-17T02:30:06.506Z,17.80
2022-10-17T02:32:40.323Z,17.80
2022-10-17T02:35:13.599Z,17.70
2022-10-17T02:37:44.962Z,17.70
2022-10-17T02:40:15.814Z,17.70
2022-10-17T02:42:45.675Z,17.70
2022-10-17T02:45:14.302Z,17.70
2022-10-17T02:47:51.421Z,17.70
2022-10-17T02:55:38.226Z,17.70
2022-10-17T03:00:45.248Z,17.60
2022-10-17T03:03:22.346Z,17.60
2022-10-17T03:05:52.435Z,17.60
2022-10-17T03:08:24.057Z,17.60
2022-10-17T03:10:52.325Z,17.50
2022-10-17T03:13:22.818Z,17.50
2022-10-17T03:15:51.036Z,17.50
2022-10-17T03:18:18.669Z,17.50
2022-10-17T03:20:48.403Z,17.50
2022-10-17T03:23:17.528Z,17.40
2022-10-17T03:25:46.192Z,17.40
2022-10-17T03:28:15.693Z,17.50
2022-10-17T03:30:43.621Z,17.50
2022-10-17T03:33:11.419Z,17.40
2022-10-17T03:35:40.827Z,17.40
2022-10-17T03:38:09.275Z,17.40
2022-10-17T03:40:39.115Z,17.40
2022-10-17T03:43:07.168Z,17.40
2022-10-17T03:45:34.866Z,17.40
2022-10-17T03:48:02.615Z,17.40
2022-10-17T03:50:31.007Z,17.30
2022-10-17T03:52:59.705Z,17.30
2022-10-17T03:55:27.556Z,17.20
2022-10-17T03:57:56.904Z,17.20
2022-10-17T04:00:24.835Z,17.20
2022-10-17T04:02:58.199Z,17.10
2022-10-17T04:05:27.155Z,17.20
2022-10-17T04:07:54.843Z,17.20
2022-10-17T04:10:32.204Z,17.20
2022-10-17T04:13:01.373Z,17.20
2022-10-17T04:15:29.211Z,17.30
2022-10-17T04:17:57.030Z,17.30
2022-10-17T04:20:24.912Z,17.30
2022-10-17T04:22:52.723Z,17.20
2022-10-17T04:25:20.626Z,17.20
2022-10-17T04:27:49.597Z,17.10
2022-10-17T04:30:18.865Z,17.20
2022-10-17T04:32:47.110Z,17.10
2022-10-17T04:35:20.783Z,17.10
2022-10-17T04:37:55.093Z,17.10
2022-10-17T04:40:23.725Z,17.10
2022-10-17T04:42:53.829Z,17.00
2022-10-17T04:45:29.737Z,17.00
2022-10-17T04:48:01.302Z,16.90
2022-10-17T04:50:29.317Z,16.90
2022-10-17T04:53:15.672Z,16.90
2022-10-17T04:55:44.573Z,16.90
2022-10-17T04:58:12.531Z,17.00
2022-10-17T05:00:42.235Z,17.00
2022-10-17T05:03:17.722Z,16.90
2022-10-17T05:05:45.841Z,16.90
2022-10-17T05:10:47.120Z,16.80
2022-10-17T05:13:15.583Z,16.80
2022-10-17T05:15:45.110Z,16.80
2022-10-17T05:18:13.841Z,16.80
2022-10-17T05:20:43.813Z,16.80
2022-10-17T05:23:11.757Z,16.70
2022-10-17T05:25:42.911Z,16.70
2022-10-17T05:28:10.760Z,16.70
2022-10-17T05:30:40.867Z,16.70
2022-10-17T05:33:11.528Z,16.80
2022-10-17T05:35:39.398Z,16.80
2022-10-17T05:38:07.273Z,16.90
2022-10-17T05:40:36.524Z,16.80
2022-10-17T05:43:04.218Z,16.70
2022-10-17T05:45:32.027Z,16.70
2022-10-17T05:48:00.777Z,16.80
2022-10-17T05:50:30.797Z,16.80
2022-10-17T05:53:13.076Z,16.70
2022-10-17T05:55:46.081Z,16.80
2022-10-17T05:58:21.878Z,16.80
2022-10-17T06:00:59.337Z,16.80
2022-10-17T06:03:28.497Z,16.80
2022-10-17T06:06:02.919Z,16.80
2022-10-17T06:08:30.738Z,16.80
2022-10-17T06:13:26.736Z,16.90
2022-10-17T06:15:55.727Z,16.90
2022-10-17T06:18:24.720Z,16.90
2022-10-17T06:20:54.216Z,17.00
2022-10-17T06:23:23.997Z,17.00
2022-10-17T06:26:05.647Z,16.90
2022-10-17T06:28:34.216Z,17.00
2022-10-17T06:31:06.097Z,17.00
2022-10-17T06:33:34.006Z,17.00
2022-10-17T06:36:03.927Z,17.10
2022-10-17T06:38:34.418Z,17.20
2022-10-17T06:41:08.505Z,17.10
2022-10-17T06:43:36.965Z,17.10
2022-10-17T06:46:29.976Z,17.20
2022-10-17T06:49:01.038Z,17.20
2022-10-17T06:51:47.234Z,17.20
2022-10-17T06:54:19.316Z,17.30
2022-10-17T06:57:13.312Z,17.30
2022-10-17T06:59:51.276Z,17.40
2022-10-17T07:02:24.357Z,17.40
2022-10-17T07:04:53.806Z,17.50
2022-10-17T07:07:21.597Z,17.50
2022-10-17T07:09:52.719Z,17.50
2022-10-17T07:12:21.568Z,17.50
2022-10-17T07:14:50.976Z,17.40
2022-10-17T07:17:19.286Z,17.40
2022-10-17T07:19:47.676Z,17.40
2022-10-17T07:22:15.887Z,17.50
2022-10-17T07:24:47.717Z,17.50
2022-10-17T07:27:22.415Z,17.50
2022-10-17T07:29:50.367Z,17.60
2022-10-17T07:32:25.076Z,17.60
2022-10-17T07:34:52.857Z,17.70
2022-10-17T07:37:20.908Z,17.70
2022-10-17T07:39:54.067Z,17.80
2022-10-17T07:42:23.466Z,17.80
2022-10-17T07:44:51.674Z,17.90
2022-10-17T07:47:21.103Z,17.90
2022-10-17T07:49:49.873Z,18.00
2022-10-17T07:52:18.033Z,18.00
2022-10-17T07:54:45.732Z,18.10
2022-10-17T07:57:13.425Z,18.20
2022-10-17T07:59:43.031Z,18.30
2022-10-17T08:02:18.893Z,18.30
2022-10-17T08:04:46.606Z,18.30
2022-10-17T08:07:23.064Z,18.40
2022-10-17T08:09:53.240Z,18.50
2022-10-17T08:12:21.057Z,18.60
2022-10-17T08:14:50.450Z,18.70
2022-10-17T08:17:18.069Z,18.70
2022-10-17T08:19:45.773Z,18.80
2022-10-17T08:22:13.356Z,18.90
2022-10-17T08:24:43.033Z,19.00
2022-10-17T08:27:13.564Z,19.10
2022-10-17T08:29:41.722Z,19.20
2022-10-17T08:32:10.816Z,19.20
2022-10-17T08:34:38.730Z,19.30
2022-10-17T08:37:06.446Z,19.40
2022-10-17T08:39:34.245Z,19.40
2022-10-17T08:42:18.631Z,19.40
2022-10-17T08:44:55.321Z,19.50
2022-10-17T08:47:29.206Z,19.50
2022-10-17T08:50:00.731Z,19.50
2022-10-17T08:52:38.198Z,19.60
2022-10-17T08:55:14.977Z,19.70
2022-10-17T08:57:42.867Z,19.80
2022-10-17T09:00:18.596Z,19.80
2022-10-17T09:03:03.412Z,19.90
2022-10-17T09:05:40.228Z,20.00
2022-10-17T09:08:28.546Z,20.10
2022-10-17T09:11:00.805Z,20.20
2022-10-17T09:13:44.139Z,20.30
2022-10-17T09:16:32.618Z,20.40
2022-10-17T09:19:05.329Z,20.50
2022-10-17T09:21:41.945Z,20.60
2022-10-17T09:24:15.806Z,20.60
2022-10-17T09:26:45.976Z,20.70
2022-10-17T09:29:20.423Z,20.90
2022-10-17T09:31:54.170Z,21.00
2022-10-17T09:34:27.550Z,21.10
2022-10-17T09:36:58.307Z,21.20
2022-10-17T09:39:27.043Z,21.30
2022-10-17T09:41:56.094Z,21.40
2022-10-17T09:44:25.802Z,21.50
2022-10-17T09:47:10.095Z,21.60
2022-10-17T09:49:41.851Z,21.70
2022-10-17T09:52:14.105Z,21.70
2022-10-17T09:54:45.873Z,21.90
2022-10-17T09:57:16.151Z,22.10
2022-10-17T09:59:45.994Z,22.20
2022-10-17T10:02:22.155Z,22.30
2022-10-17T10:05:05.519Z,22.30
2022-10-17T10:07:37.268Z,22.40
2022-10-17T10:10:08.041Z,22.40
2022-10-17T10:12:37.849Z,22.50
2022-10-17T10:15:32.718Z,22.60
2022-10-17T10:18:01.011Z,22.70
2022-10-17T10:20:33.331Z,22.80
2022-10-17T10:23:22.867Z,22.80
2022-10-17T10:25:55.301Z,23.00
2022-10-17T10:28:27.490Z,23.10
2022-10-17T10:30:57.727Z,23.10
2022-10-17T10:33:29.336Z,23.20
2022-10-17T10:36:02.107Z,23.20
2022-10-17T10:38:31.123Z,23.30
2022-10-17T10:41:04.878Z,23.40
2022-10-17T10:43:36.045Z,23.40
2022-10-17T10:46:16.784Z,23.40
2022-10-17T10:48:52.363Z,23.50
2022-10-17T10:51:28.225Z,23.60
2022-10-17T10:54:09.133Z,23.60
2022-10-17T10:56:40.916Z,23.70
2022-10-17T10:59:19.367Z,23.80
2022-10-17T11:01:53.075Z,23.70
2022-10-17T11:04:30.319Z,23.90
2022-10-17T11:07:05.227Z,24.00
2022-10-17T11:09:45.677Z,24.00
2022-10-17T11:12:19.169Z,24.00
2022-10-17T11:14:53.246Z,24.10
2022-10-17T11:17:33.333Z,24.10
2022-10-17T11:20:11.456Z,24.20
2022-10-17T11:22:44.827Z,24.50
2022-10-17T11:25:28.778Z,24.60
2022-10-17T11:27:59.796Z,24.80
2022-10-17T11:30:41.858Z,24.90
2022-10-17T11:33:18.509Z,24.80
2022-10-17T11:35:50.522Z,24.80
2022-10-17T11:38:42.176Z,24.80
2022-10-17T11:41:14.246Z,24.90
2022-10-17T11:43:50.470Z,25.00
2022-10-17T11:46:24.149Z,25.10
2022-10-17T11:49:02.763Z,25.30
2022-10-17T11:54:31.089Z,25.60
2022-10-17T11:57:16.349Z,25.80
2022-10-17T11:59:59.289Z,25.70
2022-10-17T12:02:37.090Z,25.80
2022-10-17T12:05:18.894Z,25.90
2022-10-17T12:07:53.025Z,26.00
2022-10-17T12:10:33.817Z,26.00
2022-10-17T12:13:31.327Z,26.00
2022-10-17T12:16:37.645Z,26.10
2022-10-17T12:19:28.958Z,26.10
2022-10-17T12:22:26.346Z,26.20
2022-10-17T12:24:57.786Z,26.30
2022-10-17T12:27:40.348Z,26.40
2022-10-17T12:30:19.948Z,26.50
2022-10-17T12:33:06.205Z,26.60
2022-10-17T12:35:37.774Z,26.60
2022-10-17T12:38:29.639Z,26.70
2022-10-17T12:41:05.794Z,26.80
2022-10-17T12:46:58.826Z,27.10
2022-10-17T12:49:49.145Z,27.20
2022-10-17T12:52:43.577Z,27.30
2022-10-17T12:55:15.192Z,27.30
2022-10-17T12:57:50.751Z,27.40
2022-10-17T13:00:24.515Z,27.50
2022-10-17T13:02:55.358Z,27.50
2022-10-17T13:05:28.998Z,27.60
2022-10-17T13:07:59.989Z,27.70
2022-10-17T13:10:30.254Z,27.70
2022-10-17T13:13:06.899Z,27.80
2022-10-17T13:15:37.620Z,27.80
2022-10-17T13:18:06.049Z,27.80
2022-10-17T13:20:34.429Z,27.80
2022-10-17T13:23:02.798Z,27.70
2022-10-17T13:25:30.902Z,27.70
2022-10-17T13:28:11.857Z,27.70
2022-10-17T13:30:49.464Z,27.70
2022-10-17T13:33:31.359Z,27.60
2022-10-17T13:36:01.413Z,27.60
2022-10-17T13:38:33.068Z,27.50
2022-10-17T13:41:30.030Z,27.50
2022-10-17T13:43:52.857Z,27.40
2022-10-17T13:46:37.225Z,27.50
2022-10-17T13:49:15.624Z,27.50
2022-10-17T13:51:45.868Z,27.40
2022-10-17T13:54:37.024Z,27.50
2022-10-17T13:57:07.069Z,27.60
2022-10-17T13:59:40.413Z,27.60
2022-10-17T14:02:15.700Z,27.50
2022-10-17T14:05:15.642Z,27.50
2022-10-17T14:08:05.616Z,27.60
2022-10-17T14:10:28.572Z,27.60
2022-10-17T14:12:57.454Z,27.60
2022-10-17T14:15:28.510Z,27.70
2022-10-17T14:18:04.247Z,27.90
2022-10-17T14:23:33.292Z,28.20
2022-10-17T14:26:11.052Z,28.50
2022-10-17T14:28:40.303Z,28.80
2022-10-17T14:31:30.374Z,29.00
2022-10-17T14:34:02.161Z,29.20
2022-10-17T14:36:38.150Z,29.40
2022-10-17T14:39:14.117Z,29.60
2022-10-17T14:41:44.375Z,29.60
2022-10-17T14:44:21.100Z,29.60
2022-10-17T14:46:54.367Z,29.60
2022-10-17T14:49:28.463Z,29.40
2022-10-17T14:52:24.336Z,29.10
2022-10-17T14:54:52.787Z,28.60
2022-10-17T14:57:25.243Z,28.40
2022-10-17T14:59:55.364Z,28.30
2022-10-17T15:02:24.994Z,28.70
2022-10-17T15:04:55.099Z,29.90
2022-10-17T15:07:24.353Z,31.00
2022-10-17T15:09:54.187Z,31.70
2022-10-17T15:12:23.877Z,32.30
2022-10-17T15:14:52.609Z,32.60
2022-10-17T15:17:23.890Z,33.00
2022-10-17T15:19:53.951Z,33.20
2022-10-17T17:43:58.670Z,22.40
2022-10-17T17:46:26.780Z,22.30
2022-10-17T17:48:56.173Z,22.40
2022-10-17T17:51:28.394Z,22.60
2022-10-17T17:53:58.204Z,22.60
2022-10-17T17:56:28.698Z,22.40
2022-10-17T17:58:59.799Z,22.30
2022-10-17T18:01:30.368Z,22.20
2022-10-17T18:03:59.598Z,22.10
2022-10-17T18:06:28.489Z,22.00
2022-10-17T18:08:58.249Z,21.90
2022-10-17T18:11:27.364Z,21.90
2022-10-17T18:13:58.326Z,21.90
2022-10-17T18:16:27.589Z,22.10
2022-10-17T18:18:55.585Z,22.30
2022-10-17T18:21:23.648Z,22.50
2022-10-17T18:23:52.217Z,22.50
2022-10-17T18:26:20.340Z,22.10
2022-10-17T18:28:49.750Z,21.90
2022-10-17T18:31:24.340Z,21.80
2022-10-17T18:33:53.368Z,21.80
2022-10-17T18:36:22.578Z,21.70
2022-10-17T18:38:51.017Z,21.60
2022-10-17T18:41:20.807Z,21.60
2022-10-17T18:43:50.089Z,21.70
2022-10-17T18:46:21.341Z,21.80
2022-10-17T18:48:50.630Z,21.80
2022-10-17T18:51:20.510Z,21.90
2022-10-17T18:53:51.405Z,21.70
2022-10-17T18:56:20.549Z,21.70
2022-10-17T18:58:48.890Z,21.80
2022-10-17T19:01:20.376Z,21.90
2022-10-17T19:03:50.328Z,21.80
2022-10-17T19:06:20.368Z,21.70
2022-10-17T19:08:49.341Z,21.60
2022-10-17T19:11:19.997Z,21.70
2022-10-17T19:13:48.993Z,21.70
2022-10-17T19:16:19.949Z,21.80
2022-10-17T19:18:50.988Z,21.90
2022-10-17T19:21:21.872Z,21.90
2022-10-17T19:23:52.281Z,22.00
2022-10-17T19:26:21.528Z,22.00
2022-10-17T19:28:53.795Z,22.00
2022-10-17T19:31:27.275Z,22.00
2022-10-17T19:34:05.904Z,22.00
2022-10-17T19:36:35.416Z,22.10
2022-10-17T19:39:08.854Z,22.00
2022-10-17T19:41:36.844Z,21.90
2022-10-17T19:44:04.913Z,21.90
2022-10-17T19:46:34.749Z,21.90
2022-10-17T19:49:04.361Z,21.90
2022-10-17T19:51:32.769Z,21.70
2022-10-17T19:54:01.709Z,21.70
2022-10-17T19:56:31.590Z,21.70
2022-10-17T19:58:59.848Z,21.80
2022-10-17T20:01:29.835Z,21.90
2022-10-17T20:03:59.904Z,21.80
2022-10-17T20:06:28.206Z,21.90
2022-10-17T20:09:18.509Z,21.90
2022-10-17T20:11:46.867Z,21.80
2022-10-17T20:14:14.878Z,21.80
2022-10-17T20:16:44.942Z,21.80
2022-10-17T20:19:14.521Z,21.80
2022-10-17T20:21:43.410Z,21.80
2022-10-17T20:24:14.541Z,21.80
2022-10-17T20:26:43.356Z,21.70
2022-10-17T20:29:14.683Z,21.60
2022-10-17T20:31:44.089Z,21.50
2022-10-17T20:34:15.469Z,21.40
2022-10-17T20:36:43.574Z,21.50
2022-10-17T20:39:13.013Z,21.50
2022-10-17T20:41:41.630Z,21.40
2022-10-17T20:44:10.283Z,21.40
2022-10-17T20:46:44.384Z,21.30
2022-10-17T20:49:37.590Z,21.30
2022-10-17T20:52:07.221Z,21.20
2022-10-17T20:54:35.343Z,21.10
2022-10-17T20:57:05.129Z,21.20
2022-10-17T20:59:35.540Z,21.20
2022-10-17T21:02:04.119Z,21.10
2022-10-17T21:04:46.005Z,21.10
2022-10-17T21:07:17.188Z,21.10
2022-10-17T21:09:46.659Z,21.10
2022-10-17T21:12:21.738Z,21.00
2022-10-17T21:14:59.467Z,21.00
2022-10-17T21:17:27.557Z,20.90
2022-10-17T21:19:56.069Z,20.90
2022-10-17T21:22:25.875Z,20.80
2022-10-17T21:24:53.983Z,20.80
2022-10-17T21:27:25.901Z,20.80
2022-10-17T21:29:53.948Z,20.80
2022-10-17T21:32:40.101Z,20.70
2022-10-17T21:35:10.318Z,20.60
2022-10-17T21:37:39.664Z,20.60
2022-10-17T21:40:09.041Z,20.60
2022-10-17T21:42:37.014Z,20.60
2022-10-17T21:45:15.434Z,20.60
2022-10-17T21:48:11.824Z,20.60
2022-10-17T21:50:36.365Z,20.60
2022-10-17T21:53:05.873Z,20.60
2022-10-17T21:55:36.844Z,20.50
2022-10-17T21:58:05.314Z,20.40
2022-10-17T22:00:33.461Z,20.40
2022-10-17T22:03:02.028Z,20.40
2022-10-17T22:05:31.748Z,20.40
2022-10-17T22:07:59.944Z,20.40
2022-10-17T22:10:29.229Z,20.40
2022-10-17T22:12:57.057Z,20.40
2022-10-17T22:15:25.122Z,20.30
2022-10-17T22:17:53.063Z,20.30
2022-10-17T22:20:24.774Z,20.30
2022-10-17T22:22:52.868Z,20.30
2022-10-17T22:25:20.808Z,20.30
2022-10-17T22:27:50.187Z,20.20
2022-10-17T22:30:18.464Z,20.20
2022-10-17T22:32:46.821Z,20.20
2022-10-17T22:35:14.906Z,20.20
2022-10-17T22:37:42.956Z,20.20
2022-10-17T22:40:11.791Z,20.10
2022-10-17T22:42:39.712Z,20.10
2022-10-17T22:45:10.166Z,20.10
2022-10-17T22:47:38.154Z,20.00
2022-10-17T22:50:06.579Z,20.00
2022-10-17T22:52:34.657Z,20.00
2022-10-17T22:55:04.753Z,19.90
2022-10-17T22:57:32.701Z,19.80
2022-10-17T23:00:00.668Z,19.80
2022-10-17T23:02:30.464Z,19.80
2022-10-17T23:04:58.972Z,19.60
2022-10-17T23:07:26.936Z,19.60
2022-10-17T23:09:55.091Z,19.60
2022-10-17T23:12:25.602Z,19.60
2022-10-17T23:14:53.653Z,19.60
2022-10-17T23:17:21.561Z,19.60
2022-10-17T23:19:52.949Z,19.60
2022-10-17T23:22:23.506Z,19.50
2022-10-17T23:24:51.472Z,19.50
2022-10-17T23:27:19.374Z,19.50
2022-10-17T23:29:47.238Z,19.50
2022-10-17T23:32:15.150Z,19.50
2022-10-17T23:34:42.948Z,19.50
2022-10-17T23:37:12.595Z,19.30
2022-10-17T23:39:40.530Z,19.30
2022-10-17T23:42:08.571Z,19.30
2022-10-17T23:44:36.493Z,19.30
2022-10-17T23:47:04.527Z,19.30
2022-10-17T23:49:32.863Z,19.40
2022-10-17T23:52:00.867Z,19.30
2022-10-17T23:54:30.199Z,19.10
2022-10-17T23:56:58.253Z,19.00
2022-10-17T23:59:25.954Z,19.10
